Time;durP1;ratioP1;P1;durP2;ratioP2;P2;SDS_P1;SDS_P2;PMS_P1;PMS_P2;Temp;Humidity;BMP_temperature;BMP_pressure;BME280_temperature;BME280_humidity;BME280_pressure;Samples;Min_cycle;Max_cycle;Signal;HPM_P1;HPM_P2
2021/04/29 00:01:13;;;;;;;;;;;;;;;12.57;71.23;98826.41;5135327;27;19968;-73
2021/04/29 00:03:41;;;;;;;;;;;;;;;12.53;71.43;98824.78;5135161;27;20471;-73
2021/04/29 00:06:09;;;;;;;;;;;;;;;12.49;71.48;98823.19;5135385;27;20373;-72
2021/04/29 00:08:39;;;;;;;;;;;;;;;12.47;72.05;98822.38;5135076;27;19967;-72
2021/04/29 00:11:08;;;;;;;;;;;;;;;12.40;72.45;98815.72;5135120;27;19924;-73
2021/04/29 00:13:36;;;;;;;;;;;;;;;12.40;72.40;98813.16;5135375;27;19968;-73
2021/04/29 00:16:04;;;;;;;;;;;;;;;12.44;72.63;98814.75;5134998;27;19931;-73
2021/04/29 00:18:32;;;;;;;;;;;;;;;12.43;72.75;98813.09;5135362;27;19923;-73
2021/04/29 00:21:01;;;;;;;;;;;;;;;12.45;72.63;98813.91;5135311;28;20018;-74
2021/04/29 00:23:31;;;;;;;;;;;;;;;12.44;73.37;98814.75;5116367;28;19969;-73
2021/04/29 00:26:03;;;;;;;;;;;;;;;12.45;72.94;98813.91;5134929;28;20327;-73
2021/04/29 00:28:31;;;;;;;;;;;;;;;12.49;73.31;98812.94;5134864;28;20326;-73
2021/04/29 00:31:00;;;;;;;;;;;;;;;12.51;73.24;98818.88;5134934;28;20384;-74
2021/04/29 00:33:27;;;;;;;;;;;;;;;12.53;73.39;98814.53;5135228;28;19975;-72
2021/04/29 00:35:55;;;;;;;;;;;;;;;12.53;73.24;98814.53;5134732;28;19966;-73
2021/04/29 00:38:24;;;;;;;;;;;;;;;12.55;73.49;98815.34;5099329;28;19957;-73
2021/04/29 00:40:51;;;;;;;;;;;;;;;12.55;73.56;98813.63;5134771;28;19931;-73
2021/04/29 00:43:20;;;;;;;;;;;;;;;12.58;73.51;98812.72;5116489;28;19923;-72
2021/04/29 00:45:48;;;;;;;;;;;;;;;12.61;73.38;98815.22;5134696;28;19984;-73
2021/04/29 00:48:16;;;;;;;;;;;;;;;12.61;73.52;98807.53;5134655;28;19930;-73
2021/04/29 00:50:44;;;;;;;;;;;;;;;12.63;73.62;98800.66;5134772;28;19930;-73
2021/04/29 00:53:12;;;;;;;;;;;;;;;12.65;73.60;98806.59;5134732;28;19928;-73
2021/04/29 00:55:40;;;;;;;;;;;;;;;12.63;73.76;98801.50;5134926;28;20395;-72
2021/04/29 00:58:08;;;;;;;;;;;;;;;12.65;73.47;98804.03;5134699;28;19923;-72
2021/04/29 01:00:37;;;;;;;;;;;;;;;12.66;73.45;98795.47;5134723;28;19996;-72
2021/04/29 01:03:12;;;;;;;;;;;;;;;12.67;73.53;98799.72;5134671;28;19923;-73
2021/04/29 01:05:45;;;;;;;;;;;;;;;12.67;73.41;98800.56;5116665;28;20464;-73
2021/04/29 01:08:14;;;;;;;;;;;;;;;12.67;73.62;98798.00;5116538;28;19967;-73
2021/04/29 01:10:45;;;;;;;;;;;;;;;12.67;73.85;98797.16;5134586;28;20423;-73
2021/04/29 01:13:14;;;;;;;;;;;;;;;12.63;73.65;98795.56;5134588;28;19924;-72
2021/04/29 01:15:43;;;;;;;;;;;;;;;12.62;73.80;98793.88;5134443;28;20342;-73
2021/04/29 01:18:12;;;;;;;;;;;;;;;12.63;73.96;98796.41;5134489;28;19927;-72
2021/04/29 01:20:45;;;;;;;;;;;;;;;12.60;74.10;98800.72;5116208;28;19988;-73
2021/04/29 01:23:16;;;;;;;;;;;;;;;12.58;74.06;98805.91;5134486;28;19923;-74
2021/04/29 01:25:46;;;;;;;;;;;;;;;12.58;74.12;98802.50;5134371;28;19924;-74
2021/04/29 01:28:15;;;;;;;;;;;;;;;12.55;74.51;98802.56;5134275;28;20312;-74
2021/04/29 01:30:43;;;;;;;;;;;;;;;12.55;74.59;98797.44;5134318;28;20312;-73
2021/04/29 01:33:11;;;;;;;;;;;;;;;12.53;74.65;98799.19;5134646;28;19924;-73
2021/04/29 01:35:39;;;;;;;;;;;;;;;12.54;74.68;98801.72;5118165;27;20281;-73
2021/04/29 01:38:09;;;;;;;;;;;;;;;12.54;74.60;98801.72;5119880;27;19946;-72
2021/04/29 01:40:37;;;;;;;;;;;;;;;12.52;75.01;98797.53;5137936;27;19923;-74
2021/04/29 01:43:06;;;;;;;;;;;;;;;12.50;74.96;98799.28;5137902;27;20013;-73
2021/04/29 01:45:36;;;;;;;;;;;;;;;12.48;74.97;98801.84;5137833;27;19924;-72
2021/04/29 01:48:04;;;;;;;;;;;;;;;12.47;75.38;98795.06;5137887;27;20428;-72
2021/04/29 01:50:32;;;;;;;;;;;;;;;12.46;75.50;98800.22;5137741;27;19927;-72
2021/04/29 01:53:00;;;;;;;;;;;;;;;12.45;75.57;98795.97;5137726;27;20429;-74
2021/04/29 01:55:28;;;;;;;;;;;;;;;12.44;75.52;98789.16;5137547;27;20434;-73
2021/04/29 01:57:55;;;;;;;;;;;;;;;12.44;75.77;98784.06;5137615;27;19930;-74
2021/04/29 02:00:24;;;;;;;;;;;;;;;12.44;75.87;98786.59;5137610;27;19930;-74
2021/04/29 02:02:52;;;;;;;;;;;;;;;12.42;76.01;98780.69;5137527;27;19972;-72
2021/04/29 02:05:21;;;;;;;;;;;;;;;12.39;75.99;98786.72;5119208;27;19924;-74
2021/04/29 02:07:48;;;;;;;;;;;;;;;12.40;76.15;98782.44;5137566;27;19927;-73
2021/04/29 02:10:17;;;;;;;;;;;;;;;12.41;76.21;98784.13;5137379;27;19924;-73
2021/04/29 02:12:47;;;;;;;;;;;;;;;12.42;76.17;98773.84;5119059;27;19924;-74
2021/04/29 02:15:16;;;;;;;;;;;;;;;12.41;76.33;98779.00;5137321;27;19923;-73
2021/04/29 02:17:47;;;;;;;;;;;;;;;12.41;76.51;98779.00;5137393;27;19962;-72
2021/04/29 02:20:16;;;;;;;;;;;;;;;12.38;76.57;98786.75;5137512;27;20323;-73
2021/04/29 02:22:45;;;;;;;;;;;;;;;12.38;76.86;98779.09;5137117;27;19927;-73
2021/04/29 02:25:13;;;;;;;;;;;;;;;12.37;76.69;98773.13;5118904;27;19958;-73
2021/04/29 02:27:41;;;;;;;;;;;;;;;12.38;76.75;98774.78;5136898;27;20031;-73
2021/04/29 02:30:10;;;;;;;;;;;;;;;12.40;76.53;98773.06;5118953;27;19923;-72
2021/04/29 02:32:39;;;;;;;;;;;;;;;12.39;76.69;98770.50;5137228;27;19924;-74
2021/04/29 02:35:08;;;;;;;;;;;;;;;12.40;76.52;98761.97;5136799;27;20285;-73
2021/04/29 02:37:37;;;;;;;;;;;;;;;12.39;76.70;98770.50;5136804;27;19927;-73
2021/04/29 02:40:08;;;;;;;;;;;;;;;12.39;76.70;98763.69;5137062;27;20273;-73
2021/04/29 02:42:36;;;;;;;;;;;;;;;12.39;76.67;98761.13;5136848;27;19924;-73
2021/04/29 02:45:04;;;;;;;;;;;;;;;12.40;76.54;98755.16;5136533;27;19983;-74
2021/04/29 02:47:31;;;;;;;;;;;;;;;12.41;76.37;98758.53;5136450;27;19928;-73
2021/04/29 02:49:59;;;;;;;;;;;;;;;12.42;76.34;98762.78;5136749;27;19928;-72
2021/04/29 02:52:27;;;;;;;;;;;;;;;12.42;76.37;98758.50;5136839;27;19976;-73
2021/04/29 02:55:07;;;;;;;;;;;;;;;12.42;76.33;98760.22;5119946;27;19924;-73
2021/04/29 02:57:36;;;;;;;;;;;;;;;12.38;76.41;98762.00;5136483;27;19956;-72
2021/04/29 03:00:05;;;;;;;;;;;;;;;12.40;76.51;98764.53;5136238;27;19962;-72
2021/04/29 03:02:33;;;;;;;;;;;;;;;12.39;76.41;98760.28;5136304;27;19923;-73
2021/04/29 03:05:00;;;;;;;;;;;;;;;12.40;76.42;98759.41;5136863;27;20266;-73
2021/04/29 03:07:28;;;;;;;;;;;;;;;12.43;76.34;98764.47;5136258;27;19924;-73
2021/04/29 03:09:56;;;;;;;;;;;;;;;12.44;76.19;98759.31;5136071;27;19931;-73
2021/04/29 03:12:24;;;;;;;;;;;;;;;12.48;76.10;98757.50;5117789;27;20350;-74
2021/04/29 03:14:54;;;;;;;;;;;;;;;12.48;75.99;98754.94;5136127;27;19923;-74
2021/04/29 03:17:22;;;;;;;;;;;;;;;12.50;75.74;98755.78;5117737;27;19973;-74
2021/04/29 03:19:50;;;;;;;;;;;;;;;12.54;75.46;98749.69;5135853;27;19923;-73
2021/04/29 03:22:17;;;;;;;;;;;;;;;12.54;75.49;98744.56;5136304;27;19930;-73
2021/04/29 03:24:47;;;;;;;;;;;;;;;12.55;75.05;98746.25;5135883;27;19927;-73
2021/04/29 03:27:22;;;;;;;;;;;;;;;12.60;74.72;98749.53;5117536;27;19973;-72
2021/04/29 03:29:50;;;;;;;;;;;;;;;12.62;75.00;98743.50;5135953;27;19958;-73
2021/04/29 03:32:18;;;;;;;;;;;;;;;12.62;75.18;98742.69;5117848;27;19959;-74
2021/04/29 03:34:46;;;;;;;;;;;;;;;12.65;74.82;98737.47;5135621;27;19959;-72
2021/04/29 03:37:15;;;;;;;;;;;;;;;12.65;74.58;98742.59;5135675;27;19924;-72
2021/04/29 03:39:43;;;;;;;;;;;;;;;12.64;75.40;98746.03;5135513;27;19930;-73
2021/04/29 03:42:13;;;;;;;;;;;;;;;12.64;74.96;98746.03;5135745;27;19927;-72
2021/04/29 03:44:41;;;;;;;;;;;;;;;12.66;75.08;98750.25;5135496;27;20043;-72
2021/04/29 03:47:10;;;;;;;;;;;;;;;12.66;75.18;98750.25;5135473;27;19959;-73
2021/04/29 03:49:38;;;;;;;;;;;;;;;12.68;75.42;98750.22;5116858;27;19924;-74
2021/04/29 03:52:05;;;;;;;;;;;;;;;12.66;75.32;98741.72;5135312;27;19927;-73
2021/04/29 03:54:34;;;;;;;;;;;;;;;12.65;75.50;98752.84;5135319;27;19969;-73
2021/04/29 03:57:02;;;;;;;;;;;;;;;12.64;75.55;98756.28;5134775;27;19928;-74
2021/04/29 03:59:32;;;;;;;;;;;;;;;12.64;75.51;98751.97;5134954;27;19946;-74
2021/04/29 04:02:00;;;;;;;;;;;;;;;12.64;75.59;98751.16;5135230;27;19930;-72
2021/04/29 04:04:29;;;;;;;;;;;;;;;12.64;75.75;98746.03;5135249;27;19924;-73
2021/04/29 04:06:57;;;;;;;;;;;;;;;12.62;75.66;98745.25;5135216;27;19924;-73
2021/04/29 04:09:26;;;;;;;;;;;;;;;12.61;75.44;98746.13;5135092;27;19924;-73
2021/04/29 04:12:00;;;;;;;;;;;;;;;12.63;75.63;98749.47;5135194;27;19923;-73
2021/04/29 04:14:33;;;;;;;;;;;;;;;12.59;75.63;98753.00;5135122;27;19923;-73
2021/04/29 04:17:00;;;;;;;;;;;;;;;12.60;76.02;98754.66;5135339;27;19923;-74
2021/04/29 04:19:29;;;;;;;;;;;;;;;12.60;75.88;98754.66;5135038;27;19931;-73
2021/04/29 04:21:57;;;;;;;;;;;;;;;12.58;76.08;98759.81;5135004;28;19923;-74
2021/04/29 04:24:25;;;;;;;;;;;;;;;12.58;76.08;98761.53;5135048;28;20365;-73
2021/04/29 04:26:53;;;;;;;;;;;;;;;12.58;76.05;98764.09;5135251;28;19923;-73
2021/04/29 04:29:20;;;;;;;;;;;;;;;12.60;75.80;98765.75;5134873;28;19924;-73
2021/04/29 04:31:48;;;;;;;;;;;;;;;12.58;76.17;98771.78;5134876;28;20326;-73
2021/04/29 04:34:16;;;;;;;;;;;;;;;12.58;76.19;98769.22;5134892;28;19930;-72
2021/04/29 04:36:45;;;;;;;;;;;;;;;12.53;76.26;98769.31;5135091;28;19938;-74
2021/04/29 04:39:12;;;;;;;;;;;;;;;12.55;76.35;98772.69;5134799;28;19927;-73
2021/04/29 04:41:40;;;;;;;;;;;;;;;12.51;76.60;98768.53;5134928;28;19992;-74
2021/04/29 04:44:08;;;;;;;;;;;;;;;12.53;76.58;98771.03;5134766;28;19923;-74
2021/04/29 04:46:35;;;;;;;;;;;;;;;12.50;76.44;98768.56;5135418;28;19924;-74
2021/04/29 04:49:04;;;;;;;;;;;;;;;12.50;76.94;98768.56;5134894;28;20257;-74
2021/04/29 04:51:32;;;;;;;;;;;;;;;12.50;76.86;98768.56;5134669;28;20425;-74
2021/04/29 04:54:01;;;;;;;;;;;;;;;12.51;77.05;98765.13;5134573;28;19923;-74
2021/04/29 04:56:29;;;;;;;;;;;;;;;12.49;77.03;98772.84;5134553;28;20445;-74
2021/04/29 04:58:57;;;;;;;;;;;;;;;12.50;77.11;98763.47;5134364;28;19931;-73
2021/04/29 05:01:26;;;;;;;;;;;;;;;12.51;77.00;98765.13;5134664;28;19924;-73
2021/04/29 05:03:54;;;;;;;;;;;;;;;12.54;77.29;98770.16;5134617;28;19923;-74
2021/04/29 05:06:22;;;;;;;;;;;;;;;12.55;76.97;98766.72;5116219;28;19934;-73
2021/04/29 05:08:50;;;;;;;;;;;;;;;12.56;76.93;98763.28;5135321;27;19924;-73
2021/04/29 05:11:18;;;;;;;;;;;;;;;12.55;77.03;98765.00;5138507;27;19923;-74
2021/04/29 05:13:46;;;;;;;;;;;;;;;12.57;76.96;98767.56;5138778;27;20289;-74
2021/04/29 05:16:14;;;;;;;;;;;;;;;12.59;77.14;98773.47;5138336;27;19923;-74
2021/04/29 05:18:41;;;;;;;;;;;;;;;12.59;77.02;98770.91;5120249;27;19930;-75
2021/04/29 05:21:09;;;;;;;;;;;;;;;12.58;76.82;98762.38;5138227;27;19923;-75
2021/04/29 05:23:37;;;;;;;;;;;;;;;12.59;77.16;98764.09;5138266;27;19946;-72
2021/04/29 05:26:05;;;;;;;;;;;;;;;12.60;77.11;98768.31;5138200;27;19983;-76
2021/04/29 05:28:34;;;;;;;;;;;;;;;12.61;77.53;98756.34;5138044;27;19933;-74
2021/04/29 05:31:01;;;;;;;;;;;;;;;12.62;76.90;98756.31;5138275;27;20376;-73
2021/04/29 05:33:29;;;;;;;;;;;;;;;12.65;77.00;98755.38;5138021;27;19930;-73
2021/04/29 05:35:57;;;;;;;;;;;;;;;12.66;77.11;98759.66;5138048;27;20393;-74
2021/04/29 05:38:25;;;;;;;;;;;;;;;12.68;76.97;98763.00;5138851;27;19955;-74
2021/04/29 05:40:52;;;;;;;;;;;;;;;12.67;76.93;98756.19;5138016;27;20018;-75
2021/04/29 05:43:20;;;;;;;;;;;;;;;12.65;76.88;98756.25;5138088;27;19924;-73
2021/04/29 05:45:49;;;;;;;;;;;;;;;12.66;77.06;98759.66;5137794;27;19930;-74
2021/04/29 05:48:17;;;;;;;;;;;;;;;12.66;77.40;98760.50;5137360;27;19923;-74
2021/04/29 05:50:45;;;;;;;;;;;;;;;12.67;77.31;98751.06;5137646;27;20368;-71
2021/04/29 05:53:13;;;;;;;;;;;;;;;12.66;77.45;98759.66;5137487;27;19935;-74
2021/04/29 05:55:40;;;;;;;;;;;;;;;12.67;77.54;98761.31;5137333;27;19939;-73
2021/04/29 05:58:08;;;;;;;;;;;;;;;12.67;77.52;98756.19;5137474;27;20278;-75
2021/04/29 06:00:36;;;;;;;;;;;;;;;12.67;77.40;98756.19;5137520;27;19924;-74
2021/04/29 06:03:04;;;;;;;;;;;;;;;12.66;77.40;98747.69;5137388;27;20282;-74
2021/04/29 06:05:32;;;;;;;;;;;;;;;12.69;77.64;98746.78;5137371;27;19933;-74
2021/04/29 06:08:01;;;;;;;;;;;;;;;12.70;77.54;98751.00;5137245;27;20391;-72
2021/04/29 06:10:31;;;;;;;;;;;;;;;12.73;77.41;98754.34;5137201;27;19923;-72
2021/04/29 06:12:59;;;;;;;;;;;;;;;12.76;77.38;98740.63;5137236;27;19923;-73
2021/04/29 06:15:27;;;;;;;;;;;;;;;12.77;77.23;98744.84;5137355;27;20003;-74
2021/04/29 06:17:55;;;;;;;;;;;;;;;12.80;77.28;98742.22;5137034;27;19923;-73
2021/04/29 06:20:23;;;;;;;;;;;;;;;12.84;76.74;98753.25;5136115;27;19966;-73
2021/04/29 06:22:53;;;;;;;;;;;;;;;12.86;76.64;98747.19;5137272;27;19923;-72
2021/04/29 06:25:21;;;;;;;;;;;;;;;12.88;76.71;98745.44;5137050;27;19927;-73
2021/04/29 06:27:49;;;;;;;;;;;;;;;12.94;76.65;98755.53;5136995;27;19930;-72
2021/04/29 06:30:17;;;;;;;;;;;;;;;12.96;76.55;98753.75;5136742;27;20296;-74
2021/04/29 06:32:44;;;;;;;;;;;;;;;12.98;76.65;98758.88;5136798;27;19923;-73
2021/04/29 06:35:12;;;;;;;;;;;;;;;12.97;76.72;98754.59;5137195;27;19941;-74
2021/04/29 06:37:42;;;;;;;;;;;;;;;12.96;76.64;98758.88;5118389;27;20019;-73
2021/04/29 06:40:12;;;;;;;;;;;;;;;12.97;76.93;98750.34;5136452;27;19923;-73
2021/04/29 06:42:40;;;;;;;;;;;;;;;13.00;76.66;98755.38;5136534;27;19976;-74
2021/04/29 06:45:08;;;;;;;;;;;;;;;13.05;76.60;98755.25;5136591;27;19974;-73
2021/04/29 06:47:36;;;;;;;;;;;;;;;13.09;76.74;98765.44;5136460;27;20349;-74
2021/04/29 06:50:10;;;;;;;;;;;;;;;13.10;76.46;98767.09;5136530;27;19945;-73
2021/04/29 06:52:38;;;;;;;;;;;;;;;13.10;76.40;98759.41;5136519;27;19924;-73
2021/04/29 06:55:07;;;;;;;;;;;;;;;13.09;76.47;98765.44;5136615;27;19930;-73
2021/04/29 06:57:35;;;;;;;;;;;;;;;13.07;76.44;98762.06;5118484;27;19937;-74
2021/04/29 07:00:03;;;;;;;;;;;;;;;13.08;76.30;98768.84;5136234;27;19927;-73
2021/04/29 07:02:31;;;;;;;;;;;;;;;13.09;76.28;98770.56;5136345;27;20010;-74
2021/04/29 07:05:04;;;;;;;;;;;;;;;13.10;76.47;98764.53;5135979;27;19927;-74
2021/04/29 07:07:32;;;;;;;;;;;;;;;13.14;76.47;98773.00;5136123;27;19923;-74
2021/04/29 07:10:00;;;;;;;;;;;;;;;13.16;76.05;98766.94;5135967;27;19959;-74
2021/04/29 07:12:28;;;;;;;;;;;;;;;13.18;76.11;98769.47;5136062;27;19923;-73
2021/04/29 07:14:56;;;;;;;;;;;;;;;13.19;75.94;98771.16;5136416;27;19945;-75
2021/04/29 07:17:23;;;;;;;;;;;;;;;13.19;75.98;98772.00;5135595;27;20023;-73
2021/04/29 07:19:52;;;;;;;;;;;;;;;13.20;75.70;98775.38;5136028;27;20376;-74
2021/04/29 07:22:21;;;;;;;;;;;;;;;13.21;75.70;98774.50;5135680;27;19924;-74
2021/04/29 07:24:49;;;;;;;;;;;;;;;13.25;76.01;98786.34;5136230;27;20321;-73
2021/04/29 07:27:17;;;;;;;;;;;;;;;13.27;75.91;98780.31;5135819;27;19923;-74
2021/04/29 07:29:47;;;;;;;;;;;;;;;13.26;76.17;98777.81;5135612;27;19924;-74
2021/04/29 07:32:15;;;;;;;;;;;;;;;13.29;76.19;98778.53;5135668;27;20285;-75
2021/04/29 07:34:43;;;;;;;;;;;;;;;13.32;75.95;98772.50;5135617;27;19950;-73
2021/04/29 07:37:11;;;;;;;;;;;;;;;13.31;75.62;98776.81;5135670;27;19924;-74
2021/04/29 07:39:40;;;;;;;;;;;;;;;13.33;75.70;98779.31;5135481;27;19923;-73
2021/04/29 07:42:07;;;;;;;;;;;;;;;13.34;75.46;98781.84;5135620;27;20380;-73
2021/04/29 07:44:36;;;;;;;;;;;;;;;13.35;75.37;98780.97;5135424;27;19958;-74
2021/04/29 07:47:05;;;;;;;;;;;;;;;13.36;75.23;98787.75;5135569;27;19923;-74
2021/04/29 07:49:34;;;;;;;;;;;;;;;13.34;75.12;98786.97;5135326;27;20333;-73
2021/04/29 07:52:02;;;;;;;;;;;;;;;13.38;74.92;98788.56;5135388;27;20103;-73
2021/04/29 07:54:31;;;;;;;;;;;;;;;13.37;75.17;98786.88;5135701;27;19923;-74
2021/04/29 07:56:58;;;;;;;;;;;;;;;13.38;75.18;98788.56;5135185;27;19976;-73
2021/04/29 07:59:29;;;;;;;;;;;;;;;13.40;75.12;98781.69;5135210;27;20309;-73
2021/04/29 08:01:58;;;;;;;;;;;;;;;13.43;75.32;98786.75;5134489;27;20209;-74
2021/04/29 08:04:29;;;;;;;;;;;;;;;13.44;75.21;98783.28;5135189;27;19966;-73
2021/04/29 08:06:57;;;;;;;;;;;;;;;13.48;75.02;98788.31;5134951;27;19927;-73
2021/04/29 08:09:25;;;;;;;;;;;;;;;13.50;74.90;98782.28;5135025;27;19924;-74
2021/04/29 08:11:53;;;;;;;;;;;;;;;13.55;74.95;98790.69;5135058;27;19976;-73
2021/04/29 08:14:21;;;;;;;;;;;;;;;13.58;74.91;98789.78;5135027;27;20415;-74
2021/04/29 08:16:50;;;;;;;;;;;;;;;13.60;74.67;98786.28;5134989;27;20368;-73
2021/04/29 08:19:18;;;;;;;;;;;;;;;13.62;74.60;98792.19;5135384;27;20326;-74
2021/04/29 08:21:47;;;;;;;;;;;;;;;13.64;74.66;98800.69;5135306;27;20319;-73
2021/04/29 08:24:15;;;;;;;;;;;;;;;13.66;74.88;98798.06;5135144;28;19930;-74
2021/04/29 08:26:43;;;;;;;;;;;;;;;13.63;74.44;98787.91;5135139;28;19927;-73
2021/04/29 08:29:10;;;;;;;;;;;;;;;13.64;74.60;98795.56;5135032;28;20032;-74
2021/04/29 08:31:39;;;;;;;;;;;;;;;13.68;74.63;98792.03;5134832;28;19929;-74
2021/04/29 08:34:07;;;;;;;;;;;;;;;13.72;74.53;98792.78;5134524;28;19930;-73
2021/04/29 08:36:35;;;;;;;;;;;;;;;13.74;74.14;98793.59;5135072;28;19966;-73
2021/04/29 08:39:05;;;;;;;;;;;;;;;13.78;74.39;98790.03;5134621;28;19954;-74
2021/04/29 08:41:33;;;;;;;;;;;;;;;13.85;74.19;98794.13;5134902;28;19931;-73
2021/04/29 08:44:01;;;;;;;;;;;;;;;13.93;74.08;98794.75;5135956;27;19930;-74
2021/04/29 08:46:29;;;;;;;;;;;;;;;14.00;73.97;98788.56;5120698;27;20384;-73
2021/04/29 08:48:58;;;;;;;;;;;;;;;14.04;73.94;98790.13;5138669;27;19967;-73
2021/04/29 08:51:27;;;;;;;;;;;;;;;14.07;73.40;98795.19;5139020;27;19998;-73
2021/04/29 08:53:56;;;;;;;;;;;;;;;14.09;73.77;98794.25;5138820;27;19923;-74
2021/04/29 08:56:26;;;;;;;;;;;;;;;14.10;73.36;98800.25;5139076;27;19923;-72
2021/04/29 08:58:54;;;;;;;;;;;;;;;14.10;73.13;98795.09;5120289;27;19923;-72
2021/04/29 09:01:22;;;;;;;;;;;;;;;14.12;73.40;98798.47;5138662;27;19931;-73
2021/04/29 09:03:50;;;;;;;;;;;;;;;14.16;73.17;98801.81;5138647;27;19963;-73
2021/04/29 09:06:19;;;;;;;;;;;;;;;14.20;73.34;98793.13;5138464;27;19992;-74
2021/04/29 09:08:47;;;;;;;;;;;;;;;14.27;73.24;98800.59;5138455;27;19959;-73
2021/04/29 09:11:15;;;;;;;;;;;;;;;14.34;72.94;98803.84;5138437;27;20283;-74
2021/04/29 09:13:54;;;;;;;;;;;;;;;14.42;72.64;98797.56;5119884;27;20380;-74
2021/04/29 09:16:22;;;;;;;;;;;;;;;14.59;72.70;98790.19;5120344;27;19929;-73
2021/04/29 09:18:50;;;;;;;;;;;;;;;14.72;72.67;98796.66;5138227;27;19923;-72
2021/04/29 09:21:18;;;;;;;;;;;;;;;14.81;72.05;98794.66;5138282;27;19969;-73
2021/04/29 09:23:47;;;;;;;;;;;;;;;14.71;71.92;98789.81;5137766;27;20380;-73
2021/04/29 09:26:15;;;;;;;;;;;;;;;14.72;72.10;98786.38;5138166;27;19923;-73
2021/04/29 09:28:45;;;;;;;;;;;;;;;14.83;72.12;98788.56;5138217;27;20023;-74
2021/04/29 09:31:15;;;;;;;;;;;;;;;14.90;71.94;98789.25;5137731;27;19970;-73
2021/04/29 09:33:44;;;;;;;;;;;;;;;14.91;71.56;98796.03;5137996;27;20384;-73
2021/04/29 09:36:21;;;;;;;;;;;;;;;14.98;71.13;98785.53;5138025;27;20025;-74
2021/04/29 09:38:52;;;;;;;;;;;;;;;15.04;71.20;98797.34;5137946;27;19923;-74
2021/04/29 09:41:22;;;;;;;;;;;;;;;15.13;71.28;98797.03;5137819;27;19930;-74
2021/04/29 09:43:54;;;;;;;;;;;;;;;15.16;70.34;98799.50;5120100;27;19930;-74
2021/04/29 09:46:23;;;;;;;;;;;;;;;15.13;69.88;98797.03;5137924;27;19924;-71
2021/04/29 09:48:51;;;;;;;;;;;;;;;15.10;70.15;98799.69;5137455;27;20380;-73
2021/04/29 09:51:20;;;;;;;;;;;;;;;15.16;70.17;98802.06;5137768;27;19957;-73
2021/04/29 09:53:49;;;;;;;;;;;;;;;15.30;70.11;98797.31;5137538;27;19923;-73
2021/04/29 09:56:20;;;;;;;;;;;;;;;15.35;69.74;98798.00;5136414;27;19923;-72
2021/04/29 09:58:49;;;;;;;;;;;;;;;15.35;69.43;98798.00;5137325;27;20281;-72
2021/04/29 10:01:17;;;;;;;;;;;;;;;15.34;69.40;98801.44;5137565;27;19924;-73
2021/04/29 10:03:46;;;;;;;;;;;;;;;15.32;69.24;98803.22;5137770;27;19923;-73
2021/04/29 10:06:15;;;;;;;;;;;;;;;15.31;69.18;98801.53;5119053;27;19928;-73
2021/04/29 10:08:43;;;;;;;;;;;;;;;15.34;69.33;98791.16;5137287;27;19924;-73
2021/04/29 10:11:11;;;;;;;;;;;;;;;15.41;69.13;98800.34;5137575;27;19924;-73
2021/04/29 10:13:42;;;;;;;;;;;;;;;15.46;69.46;98801.06;5137266;27;20367;-72
2021/04/29 10:16:10;;;;;;;;;;;;;;;15.47;69.47;98805.31;5119956;27;20014;-74
2021/04/29 10:18:39;;;;;;;;;;;;;;;15.56;68.99;98801.59;5137081;27;20385;-73
2021/04/29 10:21:09;;;;;;;;;;;;;;;15.69;68.84;98803.66;5137478;27;19949;-72
2021/04/29 10:23:39;;;;;;;;;;;;;;;15.86;68.92;98803.91;5137425;27;19946;-74
2021/04/29 10:26:06;;;;;;;;;;;;;;;15.97;68.27;98809.53;5136814;27;19942;-74
2021/04/29 10:28:38;;;;;;;;;;;;;;;15.97;68.01;98814.66;5136659;27;19934;-72
2021/04/29 10:31:17;;;;;;;;;;;;;;;16.10;67.17;98815.88;5136965;27;19973;-74
2021/04/29 10:33:52;;;;;;;;;;;;;;;16.26;67.21;98810.16;5136822;27;19990;-73
2021/04/29 10:36:22;;;;;;;;;;;;;;;16.54;65.61;98803.09;5136808;27;19931;-72
2021/04/29 10:38:50;;;;;;;;;;;;;;;16.65;65.50;98803.53;5136624;27;19955;-73
2021/04/29 10:41:19;;;;;;;;;;;;;;;16.60;64.84;98810.59;5136584;27;19924;-74
2021/04/29 10:43:47;;;;;;;;;;;;;;;16.63;65.58;98820.75;5136987;27;20014;-73
2021/04/29 10:46:25;;;;;;;;;;;;;;;16.73;65.17;98811.78;5136625;27;20330;-73
2021/04/29 10:48:54;;;;;;;;;;;;;;;16.70;64.93;98812.75;5136703;27;19934;-73
2021/04/29 10:51:29;;;;;;;;;;;;;;;16.77;65.00;98814.16;5136621;27;19931;-74
2021/04/29 10:54:07;;;;;;;;;;;;;;;16.97;65.10;98810.81;5136487;27;19923;-73
2021/04/29 10:56:35;;;;;;;;;;;;;;;17.08;64.38;98802.66;5136519;27;19959;-73
2021/04/29 10:59:10;;;;;;;;;;;;;;;17.25;64.24;98806.19;5136400;27;19966;-74
2021/04/29 11:01:39;;;;;;;;;;;;;;;17.29;63.91;98800.00;5136347;27;19965;-73
2021/04/29 11:04:13;;;;;;;;;;;;;;;17.21;64.03;98799.47;5136095;27;20293;-73
2021/04/29 11:06:42;;;;;;;;;;;;;;;17.09;63.79;98810.31;5135872;27;19923;-72
2021/04/29 11:09:17;;;;;;;;;;;;;;;17.05;63.87;98803.59;5136090;27;19923;-73
2021/04/29 11:11:45;;;;;;;;;;;;;;;17.36;63.84;98804.00;5136007;27;19923;-72
2021/04/29 11:14:13;;;;;;;;;;;;;;;17.67;63.15;98798.41;5135929;27;20421;-72
2021/04/29 11:16:45;;;;;;;;;;;;;;;17.91;62.01;98796.47;5135890;27;19963;-73
2021/04/29 11:19:24;;;;;;;;;;;;;;;17.91;61.49;98794.75;5135997;27;19931;-74
2021/04/29 11:22:01;;;;;;;;;;;;;;;17.92;60.85;98798.19;5136126;27;20089;-74
2021/04/29 11:24:34;;;;;;;;;;;;;;;17.65;60.86;98807.97;5135834;27;20307;-73
2021/04/29 11:27:01;;;;;;;;;;;;;;;17.55;61.57;98798.94;5136025;27;19928;-73
2021/04/29 11:29:38;;;;;;;;;;;;;;;17.54;61.84;98807.56;5135697;27;20364;-73
2021/04/29 11:32:06;;;;;;;;;;;;;;;17.42;61.97;98808.91;5135788;27;19931;-74
2021/04/29 11:34:45;;;;;;;;;;;;;;;17.41;61.97;98799.50;5135731;27;19928;-73
2021/04/29 11:37:14;;;;;;;;;;;;;;;17.52;62.39;98803.38;5135676;27;19923;-72
2021/04/29 11:39:43;;;;;;;;;;;;;;;17.54;61.84;98809.34;5135924;27;19923;-74
2021/04/29 11:42:11;;;;;;;;;;;;;;;17.61;61.93;98808.97;5135716;27;20393;-73
2021/04/29 11:44:39;;;;;;;;;;;;;;;17.54;62.12;98811.91;5135503;27;20356;-74
2021/04/29 11:47:15;;;;;;;;;;;;;;;17.53;62.20;98808.50;5135341;27;20376;-74
2021/04/29 11:49:43;;;;;;;;;;;;;;;17.75;61.79;98810.97;5135637;27;19966;-74
2021/04/29 11:52:10;;;;;;;;;;;;;;;17.88;61.36;98806.94;5135457;27;19923;-73
2021/04/29 11:54:50;;;;;;;;;;;;;;;18.22;61.10;98808.84;5135202;27;19930;-73
2021/04/29 11:57:20;;;;;;;;;;;;;;;18.42;60.60;98809.63;5135862;27;19924;-73
2021/04/29 11:59:51;;;;;;;;;;;;;;;18.34;59.81;98811.72;5136344;27;19923;-73
2021/04/29 12:02:20;;;;;;;;;;;;;;;18.33;60.31;98802.28;5135202;27;19950;-77
2021/04/29 12:04:50;;;;;;;;;;;;;;;18.29;60.15;98802.50;5134935;27;20348;-74
2021/04/29 12:07:18;;;;;;;;;;;;;;;18.29;60.17;98800.75;5135198;27;19923;-74
2021/04/29 12:09:45;;;;;;;;;;;;;;;18.05;60.34;98763.13;5134904;27;19927;-74
2021/04/29 12:12:16;;;;;;;;;;;;;;;18.20;60.04;98788.28;5135295;27;20277;-73
2021/04/29 12:14:53;;;;;;;;;;;;;;;18.13;59.54;98781.72;5135221;27;19934;-73
2021/04/29 12:17:21;;;;;;;;;;;;;;;18.21;59.28;98784.75;5135070;27;19924;-74
2021/04/29 12:19:50;;;;;;;;;;;;;;;18.24;59.39;98789.78;5133908;27;19930;-73
2021/04/29 12:22:18;;;;;;;;;;;;;;;18.21;59.48;98781.38;5135004;27;19924;-73
2021/04/29 12:24:46;;;;;;;;;;;;;;;18.11;59.32;98787.84;5116599;28;19930;-73
2021/04/29 12:27:15;;;;;;;;;;;;;;;18.06;59.51;98776.00;5134944;27;19928;-74
2021/04/29 12:29:43;;;;;;;;;;;;;;;18.06;59.96;98776.00;5134701;28;19932;-73
2021/04/29 12:32:13;;;;;;;;;;;;;;;18.20;60.87;98777.09;5134859;28;19924;-73
2021/04/29 12:34:43;;;;;;;;;;;;;;;18.28;60.60;98781.00;5135604;28;19927;-74
2021/04/29 12:37:11;;;;;;;;;;;;;;;18.34;59.95;98785.88;5134656;28;20352;-73
2021/04/29 12:39:40;;;;;;;;;;;;;;;18.37;58.97;98775.41;5134692;28;20382;-73
2021/04/29 12:42:09;;;;;;;;;;;;;;;18.47;58.39;98768.09;5134666;28;19985;-74
2021/04/29 12:44:39;;;;;;;;;;;;;;;18.79;57.83;98766.56;5134747;28;20323;-73
2021/04/29 12:47:08;;;;;;;;;;;;;;;19.06;57.26;98760.88;5134492;28;19931;-73
2021/04/29 12:49:43;;;;;;;;;;;;;;;19.31;56.46;98755.31;5134706;28;19928;-73
2021/04/29 12:52:11;;;;;;;;;;;;;;;19.24;56.24;98759.13;5134640;28;19923;-73
2021/04/29 12:54:39;;;;;;;;;;;;;;;19.16;56.41;98756.06;5134501;28;19924;-73
2021/04/29 12:57:08;;;;;;;;;;;;;;;19.07;56.53;98752.19;5134590;28;19923;-73